createdAt,value
2023-05-14T00:01:56.351Z,99.0
2023-05-14T00:04:37.053Z,99.0
2023-05-14T00:07:07.932Z,99.0
2023-05-14T00:09:38.504Z,99.0
2023-05-14T00:12:09.056Z,99.0
2023-05-14T00:14:39.627Z,99.0
2023-05-14T00:19:50.210Z,99.0
2023-05-14T00:22:20.801Z,99.0
2023-05-14T00:24:51.400Z,99.0
2023-05-14T00:27:21.969Z,99.0
2023-05-14T00:29:52.543Z,99.0
2023-05-14T00:32:33.190Z,99.0
2023-05-14T00:35:03.820Z,99.0
2023-05-14T00:37:34.402Z,99.0
2023-05-14T00:40:04.965Z,99.0
2023-05-14T00:42:35.509Z,99.0
2023-05-14T00:45:06.082Z,99.0
2023-05-14T00:47:46.710Z,99.0
2023-05-14T00:50:17.378Z,99.0
2023-05-14T00:52:47.946Z,99.0
2023-05-14T00:55:18.575Z,99.0
2023-05-14T01:00:29.560Z,99.0
2023-05-14T01:03:10.347Z,99.0
2023-05-14T01:05:31.272Z,99.0
2023-05-14T01:08:11.812Z,99.0
2023-05-14T01:10:42.354Z,99.0
2023-05-14T01:13:12.918Z,99.0
2023-05-14T01:15:43.538Z,99.0
2023-05-14T01:18:24.234Z,99.0
2023-05-14T01:20:54.882Z,99.0
2023-05-14T01:23:25.440Z,99.0
2023-05-14T01:25:56.010Z,99.0
2023-05-14T01:28:26.577Z,99.0
2023-05-14T01:30:57.160Z,99.0
2023-05-14T01:33:37.740Z,99.0
2023-05-14T01:36:08.352Z,99.0
2023-05-14T01:41:08.906Z,99.0
2023-05-14T01:43:39.599Z,99.0
2023-05-14T01:46:20.295Z,99.0
2023-05-14T01:48:50.916Z,99.0
2023-05-14T01:51:21.469Z,99.0
2023-05-14T01:53:52.016Z,99.0
2023-05-14T01:56:22.605Z,99.0
2023-05-14T01:58:53.159Z,99.0
2023-05-14T02:01:33.878Z,99.0
2023-05-14T02:04:04.712Z,99.0
2023-05-14T02:06:35.372Z,99.0
2023-05-14T02:09:05.919Z,99.0
2023-05-14T02:11:36.500Z,99.0
2023-05-14T02:14:07.099Z,99.0
2023-05-14T02:16:47.687Z,99.0
2023-05-14T02:21:48.262Z,99.0
2023-05-14T02:24:18.913Z,99.0
2023-05-14T02:26:49.525Z,99.0
2023-05-14T02:29:20.067Z,99.0
2023-05-14T02:32:00.796Z,99.0
2023-05-14T02:34:31.589Z,99.0
2023-05-14T02:37:02.170Z,99.0
2023-05-14T02:39:32.802Z,99.0
2023-05-14T02:42:03.362Z,99.0
2023-05-14T02:44:43.985Z,99.0
2023-05-14T02:47:14.633Z,99.0
2023-05-14T02:49:45.320Z,99.0
2023-05-14T02:52:15.877Z,99.0
2023-05-14T02:54:46.649Z,99.0
2023-05-14T02:57:17.202Z,99.0
2023-05-14T03:02:28.395Z,99.0
2023-05-14T03:05:00.107Z,99.0
2023-05-14T03:07:30.702Z,99.0
2023-05-14T03:10:01.263Z,99.0
2023-05-14T03:12:31.824Z,99.0
2023-05-14T03:15:12.423Z,99.0
2023-05-14T03:17:43.146Z,99.0
2023-05-14T03:20:13.844Z,99.0
2023-05-14T03:22:44.748Z,99.0
2023-05-14T03:25:15.381Z,99.0
2023-05-14T03:27:45.958Z,99.0
2023-05-14T03:30:26.766Z,99.0
2023-05-14T03:32:57.607Z,99.0
2023-05-14T03:35:28.278Z,99.0
2023-05-14T03:37:58.936Z,99.0
2023-05-14T03:42:59.486Z,99.0
2023-05-14T03:45:40.072Z,99.0
2023-05-14T03:50:50.619Z,99.0
2023-05-14T03:53:21.178Z,99.0
2023-05-14T03:55:51.792Z,99.0
2023-05-14T03:58:32.372Z,99.0
2023-05-14T04:01:02.933Z,99.0
2023-05-14T04:03:33.594Z,99.0
2023-05-14T04:06:04.394Z,99.0
2023-05-14T04:08:34.970Z,99.0
2023-05-14T04:11:05.554Z,99.0
2023-05-14T04:13:46.118Z,99.0
2023-05-14T04:16:16.779Z,99.0
2023-05-14T04:18:47.489Z,99.0
2023-05-14T04:23:48.109Z,99.0
2023-05-14T04:26:18.697Z,99.0
2023-05-14T04:28:59.245Z,99.0
2023-05-14T04:31:29.910Z,99.0
2023-05-14T04:34:00.578Z,99.0
2023-05-14T04:36:31.169Z,99.0
2023-05-14T04:39:01.707Z,99.0
2023-05-14T04:41:32.256Z,99.0
2023-05-14T04:44:12.812Z,99.0
2023-05-14T04:46:43.481Z,99.0
2023-05-14T04:49:14.071Z,99.0
2023-05-14T04:51:44.631Z,99.0
2023-05-14T04:54:15.295Z,99.0
2023-05-14T04:56:45.954Z,99.0
2023-05-14T04:59:26.503Z,99.0
2023-05-14T05:04:27.225Z,99.0
2023-05-14T05:06:57.815Z,99.0
2023-05-14T05:09:28.388Z,99.0
2023-05-14T05:12:08.968Z,99.0
2023-05-14T05:14:39.614Z,99.0
2023-05-14T05:17:10.179Z,99.0
2023-05-14T05:19:52.689Z,99.0
2023-05-14T05:22:13.341Z,99.0
2023-05-14T05:24:43.934Z,99.0
2023-05-14T05:27:24.473Z,99.0
2023-05-14T05:29:55.042Z,99.0
2023-05-14T05:32:25.595Z,99.0
2023-05-14T05:34:56.210Z,99.0
2023-05-14T05:37:26.767Z,99.0
2023-05-14T05:39:57.328Z,99.0
2023-05-14T05:45:08.109Z,99.0
2023-05-14T05:47:38.795Z,99.0
2023-05-14T05:50:09.463Z,99.0
2023-05-14T05:52:40.466Z,99.0
2023-05-14T05:55:11.093Z,99.0
2023-05-14T05:57:51.627Z,99.0
2023-05-14T06:02:53.166Z,99.0
2023-05-14T06:05:23.911Z,99.0
2023-05-14T06:07:54.589Z,99.0
2023-05-14T06:10:25.306Z,99.0
2023-05-14T06:13:06.063Z,99.0
2023-05-14T06:15:36.645Z,99.0
2023-05-14T06:18:07.340Z,99.0
2023-05-14T06:20:37.953Z,99.0
2023-05-14T06:26:00.768Z,99.0
2023-05-14T06:28:21.318Z,99.0
2023-05-14T06:30:51.881Z,99.0
2023-05-14T06:33:22.407Z,99.0
2023-05-14T06:35:52.995Z,99.0
2023-05-14T06:41:03.550Z,99.0
2023-05-14T06:43:44.130Z,99.0
2023-05-14T06:46:14.667Z,99.0
2023-05-14T06:48:45.261Z,99.0
2023-05-14T06:51:08.525Z,99.0
2023-05-14T06:53:39.080Z,99.0
2023-05-14T06:56:19.688Z,99.0
2023-05-14T06:58:50.248Z,99.0
2023-05-14T07:01:20.947Z,99.0
2023-05-14T07:06:23.808Z,99.0
2023-05-14T07:08:54.377Z,99.0
2023-05-14T07:11:34.971Z,99.0
2023-05-14T07:14:05.526Z,99.0
2023-05-14T07:16:36.162Z,99.0
2023-05-14T07:19:06.904Z,99.0
2023-05-14T07:21:37.728Z,99.0
2023-05-14T07:24:18.276Z,99.0
2023-05-14T07:26:49.080Z,99.0
2023-05-14T07:29:19.655Z,99.0
2023-05-14T07:31:50.300Z,99.0
2023-05-14T07:34:20.922Z,99.0
2023-05-14T07:36:51.487Z,99.0
2023-05-14T07:39:32.064Z,99.0
2023-05-14T07:42:02.615Z,99.0
2023-05-14T07:47:12.340Z,99.0
2023-05-14T07:52:12.955Z,99.0
2023-05-14T07:54:53.512Z,99.0
2023-05-14T07:57:24.092Z,99.0
2023-05-14T07:59:54.652Z,99.0
2023-05-14T08:02:25.288Z,99.0
2023-05-14T08:04:56.060Z,99.0
2023-05-14T08:07:26.618Z,99.0
2023-05-14T08:10:07.164Z,99.0
2023-05-14T08:12:37.688Z,99.0
2023-05-14T08:15:08.228Z,99.0
2023-05-14T08:17:38.828Z,99.0
2023-05-14T08:20:09.462Z,99.0
2023-05-14T08:22:50.045Z,99.0
2023-05-14T08:27:50.605Z,99.0
2023-05-14T08:30:21.322Z,99.0
2023-05-14T08:32:52.066Z,99.0
2023-05-14T08:35:22.784Z,99.0
2023-05-14T08:38:03.370Z,99.0
2023-05-14T08:40:34.343Z,99.0
2023-05-14T08:43:04.918Z,99.0
2023-05-14T08:45:35.459Z,99.0
2023-05-14T08:48:06.172Z,99.0
2023-05-14T08:50:37.405Z,99.0
2023-05-14T08:53:17.950Z,99.0
2023-05-14T08:55:48.499Z,99.0
2023-05-14T08:58:19.030Z,0.0
2023-05-14T09:00:49.586Z,3.0
2023-05-14T09:03:20.320Z,3.0
2023-05-14T09:08:30.926Z,6.0
2023-05-14T09:11:01.688Z,2.0
2023-05-14T09:13:32.247Z,8.0
2023-05-14T09:16:02.931Z,9.0
2023-05-14T09:18:33.566Z,9.0
2023-05-14T09:21:14.249Z,17.0
2023-05-14T09:23:44.806Z,18.0
2023-05-14T09:26:15.354Z,11.0
2023-05-14T09:28:45.904Z,19.0
2023-05-14T09:31:16.499Z,20.0
2023-05-14T09:33:47.184Z,17.0
2023-05-14T09:36:27.760Z,14.0
2023-05-14T09:38:58.316Z,12.0
2023-05-14T09:41:28.885Z,16.0
2023-05-14T09:43:59.425Z,14.0
2023-05-14T09:49:10.048Z,19.0
2023-05-14T09:51:50.615Z,21.0
2023-05-14T09:54:21.213Z,18.0
2023-05-14T09:56:52.582Z,19.0
2023-05-14T09:59:13.930Z,21.0
2023-05-14T10:01:44.857Z,17.0
2023-05-14T10:04:15.723Z,15.0
2023-05-14T10:06:56.389Z,20.0
2023-05-14T10:09:26.975Z,19.0
2023-05-14T10:11:57.777Z,17.0
2023-05-14T10:14:28.420Z,19.0
2023-05-14T10:16:59.066Z,17.0
2023-05-14T10:19:29.911Z,19.0
2023-05-14T10:22:10.504Z,19.0
2023-05-14T10:24:51.066Z,18.0
2023-05-14T10:29:51.624Z,15.0
2023-05-14T10:32:22.178Z,14.0
2023-05-14T10:35:02.885Z,17.0
2023-05-14T10:37:33.466Z,15.0
2023-05-14T10:40:04.121Z,15.0
2023-05-14T10:42:34.681Z,14.0
2023-05-14T10:45:05.257Z,15.0
2023-05-14T10:47:35.843Z,18.0
2023-05-14T10:50:16.606Z,18.0
2023-05-14T10:52:47.428Z,18.0
2023-05-14T10:55:18.038Z,17.0
2023-05-14T10:57:48.609Z,17.0
2023-05-14T11:00:19.325Z,18.0
2023-05-14T11:02:50.003Z,20.0
2023-05-14T11:05:30.750Z,18.0
2023-05-14T11:10:31.448Z,24.0
2023-05-14T11:13:02.013Z,27.0
2023-05-14T11:15:32.624Z,31.0
2023-05-14T11:18:03.315Z,25.0
2023-05-14T11:20:44.029Z,27.0
2023-05-14T11:23:14.627Z,25.0
2023-05-14T11:25:45.237Z,25.0
2023-05-14T11:28:15.909Z,26.0
2023-05-14T11:30:46.513Z,29.0
2023-05-14T11:33:27.155Z,28.0
2023-05-14T11:35:57.758Z,34.0
2023-05-14T11:38:28.318Z,38.0
2023-05-14T11:40:58.884Z,38.0
2023-05-14T11:43:29.554Z,37.0
2023-05-14T11:46:00.278Z,37.0
2023-05-14T11:53:40.951Z,38.0
2023-05-14T11:58:41.534Z,37.0
2023-05-14T12:01:12.098Z,38.0
2023-05-14T12:03:53.011Z,35.0
2023-05-14T12:06:23.840Z,38.0
2023-05-14T12:08:54.417Z,37.0
2023-05-14T12:11:24.970Z,37.0
2023-05-14T12:13:55.516Z,37.0
2023-05-14T12:16:26.181Z,38.0
2023-05-14T12:19:08.999Z,37.0
2023-05-14T12:21:39.710Z,36.0
2023-05-14T12:24:10.336Z,33.0
2023-05-14T12:26:40.946Z,31.0
2023-05-14T12:31:41.594Z,33.0
2023-05-14T12:34:22.234Z,32.0
2023-05-14T12:36:52.804Z,30.0
2023-05-14T12:39:23.364Z,31.0
2023-05-14T12:41:53.951Z,29.0
2023-05-14T12:44:24.525Z,28.0
2023-05-14T12:47:05.211Z,27.0
2023-05-14T12:49:35.932Z,29.0
2023-05-14T12:52:33.272Z,31.0
2023-05-14T12:54:37.423Z,29.0
2023-05-14T12:57:08.042Z,9.0
2023-05-14T12:59:38.619Z,4.0
2023-05-14T13:02:29.180Z,8.0
2023-05-14T13:04:54.056Z,3.0
2023-05-14T13:07:24.592Z,1.0
2023-05-14T13:12:25.223Z,99.0
2023-05-14T13:14:55.798Z,99.0
2023-05-14T13:17:36.435Z,99.0
2023-05-14T13:20:07.087Z,99.0
2023-05-14T13:22:37.642Z,99.0
2023-05-14T13:25:08.235Z,99.0
2023-05-14T13:27:38.808Z,99.0
2023-05-14T13:30:09.424Z,99.0
2023-05-14T13:32:52.457Z,99.0
2023-05-14T13:35:23.314Z,99.0
2023-05-14T13:37:54.017Z,99.0
2023-05-14T13:40:24.661Z,99.0
2023-05-14T13:42:55.240Z,99.0
2023-05-14T13:45:26.028Z,99.0
2023-05-14T13:48:06.882Z,99.0
2023-05-14T13:53:07.589Z,99.0
2023-05-14T13:55:38.160Z,99.0
2023-05-14T13:58:09.794Z,99.0
2023-05-14T14:00:50.386Z,99.0
2023-05-14T14:03:21.007Z,99.0
2023-05-14T14:05:51.656Z,99.0
2023-05-14T14:08:33.640Z,99.0
2023-05-14T14:10:54.188Z,7.0
2023-05-14T14:13:24.747Z,6.0
2023-05-14T14:16:05.363Z,16.0
2023-05-14T14:18:36.122Z,16.0
2023-05-14T14:21:06.814Z,18.0
2023-05-14T14:23:37.368Z,17.0
2023-05-14T14:26:07.945Z,17.0
2023-05-14T14:28:38.509Z,25.0
2023-05-14T14:33:49.127Z,33.0
2023-05-14T14:36:19.699Z,34.0
2023-05-14T14:38:50.236Z,33.0
2023-05-14T14:41:20.801Z,25.0
2023-05-14T14:43:51.374Z,5.0
2023-05-14T14:46:32.077Z,3.0
2023-05-14T14:49:02.704Z,2.0
2023-05-14T14:51:33.272Z,99.0
2023-05-14T14:54:03.824Z,99.0
2023-05-14T14:56:34.496Z,99.0
2023-05-14T14:59:05.100Z,99.0
2023-05-14T15:01:55.714Z,99.0
2023-05-14T15:04:26.326Z,99.0
2023-05-14T15:06:56.917Z,99.0
2023-05-14T15:09:27.500Z,99.0
2023-05-14T15:14:38.119Z,99.0
2023-05-14T15:17:08.806Z,99.0
2023-05-14T15:19:39.477Z,99.0
2023-05-14T15:22:10.063Z,99.0
2023-05-14T15:24:40.619Z,99.0
2023-05-14T15:27:11.177Z,99.0
2023-05-14T15:29:51.811Z,99.0
2023-05-14T15:32:22.371Z,99.0
2023-05-14T15:34:52.991Z,99.0
2023-05-14T15:37:23.568Z,99.0
2023-05-14T15:39:54.123Z,99.0
2023-05-14T15:42:24.772Z,99.0
2023-05-14T15:45:05.442Z,99.0
2023-05-14T15:47:36.025Z,99.0
2023-05-14T15:50:06.698Z,99.0
2023-05-14T15:55:07.253Z,99.0
2023-05-14T15:57:37.902Z,99.0
2023-05-14T16:00:18.483Z,99.0
2023-05-14T16:02:49.370Z,99.0
2023-05-14T16:05:20.206Z,99.0
2023-05-14T16:07:50.767Z,99.0
2023-05-14T16:10:21.516Z,99.0
2023-05-14T16:12:52.223Z,99.0
2023-05-14T16:15:32.882Z,99.0
2023-05-14T16:18:03.451Z,99.0
2023-05-14T16:20:34.298Z,99.0
2023-05-14T16:23:04.884Z,99.0
2023-05-14T16:25:35.440Z,99.0
2023-05-14T16:28:15.985Z,99.0
2023-05-14T16:30:46.534Z,99.0
2023-05-14T16:35:47.101Z,99.0
2023-05-14T16:38:17.662Z,99.0
2023-05-14T16:40:48.255Z,99.0
2023-05-14T16:43:28.807Z,99.0
2023-05-14T16:45:59.395Z,99.0
2023-05-14T16:48:29.952Z,99.0
2023-05-14T16:51:00.566Z,99.0
2023-05-14T16:53:31.114Z,99.0
2023-05-14T16:56:01.680Z,99.0
2023-05-14T16:58:42.249Z,99.0
2023-05-14T17:01:12.957Z,99.0
2023-05-14T17:03:43.612Z,99.0
2023-05-14T17:06:14.163Z,99.0
2023-05-14T17:08:44.702Z,99.0
2023-05-14T17:11:15.287Z,99.0
2023-05-14T17:16:35.886Z,99.0
2023-05-14T17:19:06.610Z,99.0
2023-05-14T17:21:37.289Z,99.0
2023-05-14T17:24:07.840Z,99.0
2023-05-14T17:26:48.406Z,99.0
2023-05-14T17:29:18.944Z,99.0
2023-05-14T17:31:49.561Z,99.0
2023-05-14T17:34:20.271Z,99.0
2023-05-14T17:36:50.891Z,99.0
2023-05-14T17:39:21.459Z,99.0
2023-05-14T17:42:02.037Z,99.0
2023-05-14T17:44:32.601Z,99.0
2023-05-14T17:47:03.237Z,99.0
2023-05-14T17:49:33.847Z,99.0
2023-05-14T17:52:04.473Z,99.0
2023-05-14T17:57:15.029Z,99.0
2023-05-14T17:59:45.592Z,99.0
2023-05-14T18:02:16.158Z,99.0
2023-05-14T18:04:46.820Z,99.0
2023-05-14T18:07:17.514Z,99.0
2023-05-14T18:09:48.112Z,99.0
2023-05-14T18:12:28.781Z,99.0
2023-05-14T18:14:59.322Z,99.0
2023-05-14T18:17:29.875Z,99.0
2023-05-14T18:20:00.620Z,99.0
2023-05-14T18:22:31.200Z,99.0
2023-05-14T18:25:01.813Z,99.0
2023-05-14T18:27:42.362Z,99.0
2023-05-14T18:30:12.938Z,99.0
2023-05-14T18:32:43.722Z,99.0
2023-05-14T18:37:44.451Z,99.0
2023-05-14T18:40:27.968Z,99.0
2023-05-14T18:42:58.605Z,99.0
2023-05-14T18:45:29.185Z,99.0
2023-05-14T18:47:59.856Z,99.0
2023-05-14T18:50:30.570Z,99.0
2023-05-14T18:53:01.339Z,99.0
2023-05-14T18:55:41.940Z,99.0
2023-05-14T18:58:12.549Z,99.0
2023-05-14T19:00:43.125Z,99.0
2023-05-14T19:03:13.963Z,99.0
2023-05-14T19:05:44.682Z,99.0
2023-05-14T19:08:15.232Z,99.0
2023-05-14T19:10:55.880Z,99.0
2023-05-14T19:13:26.432Z,99.0
2023-05-14T19:18:27.028Z,99.0
2023-05-14T19:20:57.703Z,99.0
2023-05-14T19:23:28.253Z,99.0
2023-05-14T19:26:08.812Z,99.0
2023-05-14T19:28:39.408Z,99.0
2023-05-14T19:31:10.004Z,99.0
2023-05-14T19:33:40.677Z,99.0
2023-05-14T19:36:11.235Z,99.0
2023-05-14T19:38:51.786Z,99.0
2023-05-14T19:41:22.346Z,99.0
2023-05-14T19:43:52.938Z,99.0
2023-05-14T19:46:23.531Z,99.0
2023-05-14T19:48:54.143Z,99.0
2023-05-14T19:51:24.698Z,99.0
2023-05-14T19:54:05.277Z,99.0
2023-05-14T19:59:15.855Z,99.0
2023-05-14T20:01:46.546Z,99.0
2023-05-14T20:04:17.113Z,99.0
2023-05-14T20:06:47.708Z,99.0
2023-05-14T20:09:28.356Z,99.0
2023-05-14T20:11:58.963Z,99.0
2023-05-14T20:14:29.571Z,99.0
2023-05-14T20:17:00.260Z,99.0
2023-05-14T20:19:31.764Z,99.0
2023-05-14T20:22:02.331Z,99.0
2023-05-14T20:24:42.914Z,99.0
2023-05-14T20:27:13.477Z,99.0
2023-05-14T20:29:44.112Z,99.0
2023-05-14T20:32:14.675Z,99.0
2023-05-14T20:34:45.606Z,99.0
2023-05-14T20:39:56.280Z,99.0
2023-05-14T20:42:27.061Z,99.0
2023-05-14T20:44:57.645Z,99.0
2023-05-14T20:47:28.174Z,99.0
2023-05-14T20:49:58.824Z,99.0
2023-05-14T20:52:39.407Z,99.0
2023-05-14T20:55:12.150Z,99.0
2023-05-14T20:57:43.537Z,99.0
2023-05-14T21:00:14.244Z,99.0
2023-05-14T21:02:45.094Z,99.0
2023-05-14T21:05:15.828Z,99.0
2023-05-14T21:07:56.826Z,99.0
2023-05-14T21:10:27.439Z,99.0
2023-05-14T21:12:58.054Z,99.0
2023-05-14T21:15:28.624Z,99.0
2023-05-14T21:20:29.189Z,99.0
2023-05-14T21:23:09.728Z,99.0
2023-05-14T21:25:40.289Z,99.0
2023-05-14T21:28:10.888Z,99.0
2023-05-14T21:30:41.506Z,99.0
2023-05-14T21:33:12.138Z,99.0
2023-05-14T21:35:42.722Z,99.0
2023-05-14T21:38:23.300Z,99.0
2023-05-14T21:40:53.908Z,99.0
2023-05-14T21:43:24.505Z,99.0
2023-05-14T21:45:55.109Z,99.0
2023-05-14T21:48:25.742Z,99.0
2023-05-14T21:50:56.601Z,99.0
2023-05-14T21:53:37.156Z,99.0
2023-05-14T21:56:07.732Z,99.0
2023-05-14T22:01:08.411Z,99.0
2023-05-14T22:03:39.110Z,99.0
2023-05-14T22:06:19.734Z,99.0
2023-05-14T22:08:50.294Z,99.0
2023-05-14T22:11:20.841Z,99.0
2023-05-14T22:13:51.443Z,99.0
2023-05-14T22:18:52.122Z,99.0
2023-05-14T22:21:33.947Z,99.0
2023-05-14T22:24:04.515Z,99.0
2023-05-14T22:26:35.077Z,99.0
2023-05-14T22:29:05.633Z,99.0
2023-05-14T22:31:36.261Z,99.0
2023-05-14T22:34:06.856Z,99.0
2023-05-14T22:36:47.432Z,99.0
2023-05-14T22:41:48.017Z,99.0
2023-05-14T22:44:18.601Z,99.0
2023-05-14T22:46:50.600Z,99.0
2023-05-14T22:49:21.270Z,99.0
2023-05-14T22:52:01.916Z,99.0
2023-05-14T22:54:32.503Z,99.0
2023-05-14T22:57:03.081Z,99.0
2023-05-14T22:59:34.291Z,99.0
2023-05-14T23:02:04.995Z,99.0
2023-05-14T23:04:35.796Z,99.0
2023-05-14T23:07:16.409Z,99.0
2023-05-14T23:09:46.980Z,99.0
2023-05-14T23:12:17.530Z,99.0
2023-05-14T23:14:48.107Z,99.0
2023-05-14T23:17:18.668Z,99.0
2023-05-14T23:22:29.331Z,99.0
2023-05-14T23:24:59.904Z,99.0
2023-05-14T23:27:30.448Z,99.0
2023-05-14T23:30:11.038Z,99.0
2023-05-14T23:32:41.693Z,99.0
2023-05-14T23:35:22.728Z,99.0
2023-05-14T23:37:43.524Z,99.0
2023-05-14T23:40:24.117Z,99.0
2023-05-14T23:42:54.677Z,99.0
2023-05-14T23:45:25.499Z,99.0
2023-05-14T23:47:56.305Z,99.0
2023-05-14T23:50:37.052Z,99.0
2023-05-14T23:53:07.649Z,99.0
2023-05-14T23:58:08.346Z,99.0
